Time;durP1;ratioP1;P1;durP2;ratioP2;P2;SDS_P1;SDS_P2;PMS_P1;PMS_P2;Temp;Humidity;BMP_temperature;BMP_pressure;BME280_temperature;BME280_humidity;BME280_pressure;Samples;Min_cycle;Max_cycle;Signal;HPM_P1;HPM_P2
2023/08/18 00:01:24;;;;;;;;;;;;;;;;;;5078487;28;19909;-21
2023/08/18 00:03:50;;;;;;;;;;;;;;;;;;5078029;28;20374;-20
2023/08/18 00:06:16;;;;;;;;;;;;;;;;;;5078059;28;20011;-20
2023/08/18 00:08:42;;;;;;;;;;;;;;;;;;5078109;28;19908;-21
2023/08/18 00:11:08;;;;;;;;;;;;;;;;;;5078048;28;19908;-21
2023/08/18 00:13:34;;;;;;;;;;;;;;;;;;5076841;28;20299;-22
2023/08/18 00:16:00;;;;;;;;;;;;;;;;;;5077008;28;19955;-21
2023/08/18 00:18:26;;;;;;;;;;;;;;;;;;5077976;28;19909;-21
2023/08/18 00:20:52;;;;;;;;;;;;;;;;;;5077890;28;19970;-20
2023/08/18 00:23:18;;;;;;;;;;;;;;;;;;5078083;28;19908;-22
2023/08/18 00:25:44;;;;;;;;;;;;;;;;;;5077727;28;19924;-21
2023/08/18 00:28:10;;;;;;;;;;;;;;;;;;5077723;28;19912;-21
2023/08/18 00:30:36;;;;;;;;;;;;;;;;;;5077666;28;19994;-21
2023/08/18 00:33:02;;;;;;;;;;;;;;;;;;5077574;28;20021;-20
2023/08/18 00:35:28;;;;;;;;;;;;;;;;;;5077597;28;19908;-21
2023/08/18 00:37:54;;;;;;;;;;;;;;;;;;5077872;28;19908;-23
2023/08/18 00:40:20;;;;;;;;;;;;;;;;;;5077809;28;19916;-22
2023/08/18 00:42:46;;;;;;;;;;;;;;;;;;5077435;28;19909;-23
2023/08/18 00:45:12;;;;;;;;;;;;;;;;;;5077367;28;19912;-22
2023/08/18 00:47:38;;;;;;;;;;;;;;;;;;5077028;28;19962;-20
2023/08/18 00:50:04;;;;;;;;;;;;;;;;;;5077765;28;19908;-20
2023/08/18 00:52:30;;;;;;;;;;;;;;;;;;5077201;28;19934;-21
2023/08/18 00:54:56;;;;;;;;;;;;;;;;;;5076211;28;19908;-22
2023/08/18 00:57:22;;;;;;;;;;;;;;;;;;5076223;28;19913;-21
2023/08/18 00:59:49;;;;;;;;;;;;;;;;;;5077179;28;20301;-22
2023/08/18 01:02:15;;;;;;;;;;;;;;;;;;5077376;28;20224;-22
2023/08/18 01:04:41;;;;;;;;;;;;;;;;;;5075880;28;19931;-22
2023/08/18 01:07:07;;;;;;;;;;;;;;;;;;5077116;28;19935;-20
2023/08/18 01:09:33;;;;;;;;;;;;;;;;;;5077037;28;19908;-22
2023/08/18 01:11:59;;;;;;;;;;;;;;;;;;5076828;28;19977;-21
2023/08/18 01:14:25;;;;;;;;;;;;;;;;;;5076938;28;19982;-22
2023/08/18 01:16:51;;;;;;;;;;;;;;;;;;5077127;28;20338;-22
2023/08/18 01:19:17;;;;;;;;;;;;;;;;;;5076867;28;19962;-21
2023/08/18 01:21:43;;;;;;;;;;;;;;;;;;5075675;28;19995;-21
2023/08/18 01:24:09;;;;;;;;;;;;;;;;;;5076777;28;19908;-20
2023/08/18 01:26:35;;;;;;;;;;;;;;;;;;5076681;28;19913;-20
2023/08/18 01:29:01;;;;;;;;;;;;;;;;;;5076984;28;19908;-23
2023/08/18 01:31:27;;;;;;;;;;;;;;;;;;5076646;28;20002;-23
2023/08/18 01:33:53;;;;;;;;;;;;;;;;;;5076616;28;19952;-21
2023/08/18 01:36:19;;;;;;;;;;;;;;;;;;5076620;28;19908;-20
2023/08/18 01:38:45;;;;;;;;;;;;;;;;;;5076529;28;19912;-21
2023/08/18 01:41:11;;;;;;;;;;;;;;;;;;5076726;28;19908;-21
2023/08/18 01:43:37;;;;;;;;;;;;;;;;;;5076332;28;19980;-22
2023/08/18 01:46:03;;;;;;;;;;;;;;;;;;5076522;28;19924;-22
2023/08/18 01:48:29;;;;;;;;;;;;;;;;;;5076557;28;19908;-21
2023/08/18 01:50:55;;;;;;;;;;;;;;;;;;5076186;28;19909;-20
2023/08/18 01:53:20;;;;;;;;;;;;;;;;;;5076166;28;19913;-20
2023/08/18 01:55:46;;;;;;;;;;;;;;;;;;5076358;28;19908;-21
2023/08/18 01:58:13;;;;;;;;;;;;;;;;;;5076126;28;19931;-21
2023/08/18 02:00:39;;;;;;;;;;;;;;;;;;5076270;28;20020;-21
2023/08/18 02:03:05;;;;;;;;;;;;;;;;;;5075969;28;19932;-22
2023/08/18 02:05:31;;;;;;;;;;;;;;;;;;5075959;28;19912;-22
2023/08/18 02:07:57;;;;;;;;;;;;;;;;;;5075943;28;19920;-20
2023/08/18 02:10:23;;;;;;;;;;;;;;;;;;5075810;28;19908;-20
2023/08/18 02:12:49;;;;;;;;;;;;;;;;;;5075766;28;19977;-20
2023/08/18 02:15:15;;;;;;;;;;;;;;;;;;5075759;28;19909;-21
2023/08/18 02:17:41;;;;;;;;;;;;;;;;;;5075931;28;20007;-22
2023/08/18 02:20:08;;;;;;;;;;;;;;;;;;5075987;28;19920;-21
2023/08/18 02:22:34;;;;;;;;;;;;;;;;;;5075728;28;19909;-22
2023/08/18 02:25:00;;;;;;;;;;;;;;;;;;5075550;28;20343;-21
2023/08/18 02:27:26;;;;;;;;;;;;;;;;;;5075586;28;19909;-21
2023/08/18 02:29:52;;;;;;;;;;;;;;;;;;5075457;28;19908;-21
2023/08/18 02:32:18;;;;;;;;;;;;;;;;;;5075627;28;19926;-23
2023/08/18 02:34:44;;;;;;;;;;;;;;;;;;5074420;28;20038;-21
2023/08/18 02:37:11;;;;;;;;;;;;;;;;;;5075841;28;19909;-22
2023/08/18 02:39:37;;;;;;;;;;;;;;;;;;5074247;28;19908;-21
2023/08/18 02:42:03;;;;;;;;;;;;;;;;;;5075178;28;19965;-21
2023/08/18 02:44:29;;;;;;;;;;;;;;;;;;5075169;28;19974;-20
2023/08/18 02:46:55;;;;;;;;;;;;;;;;;;5075256;28;19943;-20
2023/08/18 02:49:21;;;;;;;;;;;;;;;;;;5075093;28;19909;-22
2023/08/18 02:51:47;;;;;;;;;;;;;;;;;;5074052;28;19951;-21
2023/08/18 02:54:13;;;;;;;;;;;;;;;;;;5074143;28;19909;-23
2023/08/18 02:56:39;;;;;;;;;;;;;;;;;;5074940;28;19909;-20
2023/08/18 02:59:05;;;;;;;;;;;;;;;;;;5075229;28;19920;-21
2023/08/18 03:01:31;;;;;;;;;;;;;;;;;;5074889;28;19923;-21
2023/08/18 03:03:56;;;;;;;;;;;;;;;;;;5074689;28;19955;-21
2023/08/18 03:06:22;;;;;;;;;;;;;;;;;;5074729;28;20323;-21
2023/08/18 03:08:48;;;;;;;;;;;;;;;;;;5075053;28;19947;-22
2023/08/18 03:11:14;;;;;;;;;;;;;;;;;;5073752;28;19916;-20
2023/08/18 03:13:40;;;;;;;;;;;;;;;;;;5074916;28;20393;-20
2023/08/18 03:16:06;;;;;;;;;;;;;;;;;;5074381;28;19908;-20
2023/08/18 03:18:32;;;;;;;;;;;;;;;;;;5074656;28;19946;-20
2023/08/18 03:20:59;;;;;;;;;;;;;;;;;;5074601;28;19908;-21
2023/08/18 03:23:25;;;;;;;;;;;;;;;;;;5074563;28;19913;-23
2023/08/18 03:25:51;;;;;;;;;;;;;;;;;;5074798;28;19949;-21
2023/08/18 03:28:17;;;;;;;;;;;;;;;;;;5074774;28;19917;-21
2023/08/18 03:30:43;;;;;;;;;;;;;;;;;;5073541;28;19909;-20
2023/08/18 03:33:09;;;;;;;;;;;;;;;;;;5074572;28;19916;-21
2023/08/18 03:35:38;;;;;;;;;;;;;;;;;;5074465;28;20412;-23
2023/08/18 03:38:04;;;;;;;;;;;;;;;;;;5074514;28;20258;-21
2023/08/18 03:40:30;;;;;;;;;;;;;;;;;;5074651;28;19935;-21
2023/08/18 03:42:56;;;;;;;;;;;;;;;;;;5074283;28;19932;-20
2023/08/18 03:45:22;;;;;;;;;;;;;;;;;;5074350;28;19978;-20
2023/08/18 03:47:48;;;;;;;;;;;;;;;;;;5074268;28;20102;-21
2023/08/18 03:50:14;;;;;;;;;;;;;;;;;;5074136;28;19913;-22
2023/08/18 03:52:40;;;;;;;;;;;;;;;;;;5074105;28;19908;-20
2023/08/18 03:55:06;;;;;;;;;;;;;;;;;;5073103;28;20331;-21
2023/08/18 03:57:31;;;;;;;;;;;;;;;;;;5074466;28;19908;-21
2023/08/18 03:59:57;;;;;;;;;;;;;;;;;;5074195;28;19919;-21
2023/08/18 04:02:23;;;;;;;;;;;;;;;;;;5074190;28;19916;-21
2023/08/18 04:04:49;;;;;;;;;;;;;;;;;;5074038;28;19927;-20
2023/08/18 04:07:16;;;;;;;;;;;;;;;;;;5074142;28;19908;-21
2023/08/18 04:09:42;;;;;;;;;;;;;;;;;;5074340;28;19927;-21
2023/08/18 04:12:08;;;;;;;;;;;;;;;;;;5074289;28;20343;-23
2023/08/18 04:14:34;;;;;;;;;;;;;;;;;;5072997;28;19913;-21
2023/08/18 04:17:00;;;;;;;;;;;;;;;;;;5074361;28;19908;-20
2023/08/18 04:19:26;;;;;;;;;;;;;;;;;;5073963;28;19943;-20
2023/08/18 04:21:52;;;;;;;;;;;;;;;;;;5073867;28;19931;-21
2023/08/18 04:24:18;;;;;;;;;;;;;;;;;;5073764;28;19999;-23
2023/08/18 04:26:44;;;;;;;;;;;;;;;;;;5073684;28;19927;-22
2023/08/18 04:29:10;;;;;;;;;;;;;;;;;;5076543;28;19909;-21
2023/08/18 04:31:37;;;;;;;;;;;;;;;;;;5077321;28;19935;-21
2023/08/18 04:34:03;;;;;;;;;;;;;;;;;;5077421;28;20327;-20
2023/08/18 04:36:29;;;;;;;;;;;;;;;;;;5077534;28;19908;-22
2023/08/18 04:38:56;;;;;;;;;;;;;;;;;;5077565;28;19951;-21
2023/08/18 04:41:22;;;;;;;;;;;;;;;;;;5077365;28;19908;-23
2023/08/18 04:43:52;;;;;;;;;;;;;;;;;;5077392;28;19915;-22
2023/08/18 04:46:18;;;;;;;;;;;;;;;;;;5077458;28;19923;-22
2023/08/18 04:48:44;;;;;;;;;;;;;;;;;;5077669;28;19913;-21
2023/08/18 04:51:10;;;;;;;;;;;;;;;;;;5077356;28;20016;-21
2023/08/18 04:53:36;;;;;;;;;;;;;;;;;;5076861;28;19908;-22
2023/08/18 04:56:03;;;;;;;;;;;;;;;;;;5077236;28;19908;-20
2023/08/18 04:58:29;;;;;;;;;;;;;;;;;;5077491;28;19939;-20
2023/08/18 05:00:55;;;;;;;;;;;;;;;;;;5077025;28;19908;-22
2023/08/18 05:03:21;;;;;;;;;;;;;;;;;;5075650;28;20351;-21
2023/08/18 05:05:47;;;;;;;;;;;;;;;;;;5076956;28;19999;-20
2023/08/18 05:08:12;;;;;;;;;;;;;;;;;;5075743;28;19909;-20
2023/08/18 05:10:38;;;;;;;;;;;;;;;;;;5076934;28;20240;-21
2023/08/18 05:13:04;;;;;;;;;;;;;;;;;;5077004;28;19935;-21
2023/08/18 05:15:30;;;;;;;;;;;;;;;;;;5077032;28;19931;-21
2023/08/18 05:17:56;;;;;;;;;;;;;;;;;;5076558;28;19928;-20
2023/08/18 05:20:22;;;;;;;;;;;;;;;;;;5077038;28;19939;-21
2023/08/18 05:22:48;;;;;;;;;;;;;;;;;;5076560;28;19973;-21
2023/08/18 05:25:14;;;;;;;;;;;;;;;;;;5076286;28;20223;-24
2023/08/18 05:27:40;;;;;;;;;;;;;;;;;;5076884;28;20363;-22
2023/08/18 05:30:06;;;;;;;;;;;;;;;;;;5076540;28;19916;-21
2023/08/18 05:32:32;;;;;;;;;;;;;;;;;;5075507;28;19935;-20
2023/08/18 05:34:58;;;;;;;;;;;;;;;;;;5076572;28;19908;-21
2023/08/18 05:37:24;;;;;;;;;;;;;;;;;;5076189;28;20251;-22
2023/08/18 05:39:50;;;;;;;;;;;;;;;;;;5075611;28;20020;-21
2023/08/18 05:42:16;;;;;;;;;;;;;;;;;;5076222;28;19909;-21
2023/08/18 05:44:42;;;;;;;;;;;;;;;;;;5075047;28;20302;-21
2023/08/18 05:47:08;;;;;;;;;;;;;;;;;;5076174;28;19908;-21
2023/08/18 05:49:34;;;;;;;;;;;;;;;;;;5074982;28;20358;-23
2023/08/18 05:52:00;;;;;;;;;;;;;;;;;;5075682;28;19909;-21
2023/08/18 05:54:26;;;;;;;;;;;;;;;;;;5074666;28;19952;-22
2023/08/18 05:56:52;;;;;;;;;;;;;;;;;;5075708;28;19919;-21
2023/08/18 05:59:18;;;;;;;;;;;;;;;;;;5075691;28;19973;-20
2023/08/18 06:01:44;;;;;;;;;;;;;;;;;;5075960;28;20061;-21
2023/08/18 06:04:10;;;;;;;;;;;;;;;;;;5075311;28;20420;-20
2023/08/18 06:06:36;;;;;;;;;;;;;;;;;;5075326;28;19978;-21
2023/08/18 06:09:02;;;;;;;;;;;;;;;;;;5075718;28;19909;-21
2023/08/18 06:11:28;;;;;;;;;;;;;;;;;;5075131;28;19919;-21
2023/08/18 06:13:54;;;;;;;;;;;;;;;;;;5074714;28;19991;-20
2023/08/18 06:16:20;;;;;;;;;;;;;;;;;;5074715;28;20005;-21
2023/08/18 06:18:46;;;;;;;;;;;;;;;;;;5075021;28;19909;-23
2023/08/18 06:21:12;;;;;;;;;;;;;;;;;;5073629;28;20425;-22
2023/08/18 06:23:38;;;;;;;;;;;;;;;;;;5075049;28;19914;-22
2023/08/18 06:26:04;;;;;;;;;;;;;;;;;;5074725;28;19916;-21
2023/08/18 06:28:30;;;;;;;;;;;;;;;;;;5073722;28;19916;-20
2023/08/18 06:30:56;;;;;;;;;;;;;;;;;;5074710;28;19928;-22
2023/08/18 06:33:22;;;;;;;;;;;;;;;;;;5074687;28;19912;-22
2023/08/18 06:35:48;;;;;;;;;;;;;;;;;;5074677;28;19944;-20
2023/08/18 06:38:14;;;;;;;;;;;;;;;;;;5075208;28;20313;-22
2023/08/18 06:40:40;;;;;;;;;;;;;;;;;;5075109;28;19958;-20
2023/08/18 06:43:06;;;;;;;;;;;;;;;;;;5073865;28;19909;-20
2023/08/18 06:45:32;;;;;;;;;;;;;;;;;;5073884;28;19923;-21
2023/08/18 06:47:58;;;;;;;;;;;;;;;;;;5074123;28;19954;-22
2023/08/18 06:50:24;;;;;;;;;;;;;;;;;;5075175;28;19916;-21
2023/08/18 06:52:50;;;;;;;;;;;;;;;;;;5074059;28;20259;-20
2023/08/18 06:55:16;;;;;;;;;;;;;;;;;;5074731;28;19909;-20
2023/08/18 06:57:42;;;;;;;;;;;;;;;;;;5074693;28;19993;-22
2023/08/18 07:00:09;;;;;;;;;;;;;;;;;;5074734;28;19909;-21
2023/08/18 07:02:35;;;;;;;;;;;;;;;;;;5073811;28;19996;-21
2023/08/18 07:05:03;;;;;;;;;;;;;;;;;;5073488;28;20019;-21
2023/08/18 07:07:29;;;;;;;;;;;;;;;;;;5073450;28;19928;-22
2023/08/18 07:09:55;;;;;;;;;;;;;;;;;;5074505;28;19909;-21
2023/08/18 07:12:21;;;;;;;;;;;;;;;;;;5074318;28;19908;-22
2023/08/18 07:14:47;;;;;;;;;;;;;;;;;;5073427;28;19909;-20
2023/08/18 07:17:13;;;;;;;;;;;;;;;;;;5074636;28;19965;-20
2023/08/18 07:19:39;;;;;;;;;;;;;;;;;;5074447;28;19909;-28
2023/08/18 07:22:05;;;;;;;;;;;;;;;;;;5073325;28;19913;-22
2023/08/18 07:24:32;;;;;;;;;;;;;;;;;;5074363;28;19919;-22
2023/08/18 07:26:58;;;;;;;;;;;;;;;;;;5074338;28;19909;-21
2023/08/18 07:29:24;;;;;;;;;;;;;;;;;;5074220;28;19916;-21
2023/08/18 07:31:50;;;;;;;;;;;;;;;;;;5074217;28;19908;-21
2023/08/18 07:34:16;;;;;;;;;;;;;;;;;;5073238;28;19919;-21
2023/08/18 07:36:42;;;;;;;;;;;;;;;;;;5074333;28;20335;-22
2023/08/18 07:39:11;;;;;;;;;;;;;;;;;;5074178;28;19920;-22
2023/08/18 07:41:37;;;;;;;;;;;;;;;;;;5074201;28;19918;-20
2023/08/18 07:44:03;;;;;;;;;;;;;;;;;;5074082;28;19909;-24
2023/08/18 07:46:30;;;;;;;;;;;;;;;;;;5074012;28;20324;-22
2023/08/18 07:48:56;;;;;;;;;;;;;;;;;;5074149;28;19984;-22
2023/08/18 07:51:22;;;;;;;;;;;;;;;;;;5074607;28;19931;-21
2023/08/18 07:53:48;;;;;;;;;;;;;;;;;;5074374;28;19992;-21
2023/08/18 07:56:14;;;;;;;;;;;;;;;;;;5074344;28;19912;-21
2023/08/18 07:58:40;;;;;;;;;;;;;;;;;;5074310;28;19909;-22
2023/08/18 08:01:06;;;;;;;;;;;;;;;;;;5074670;28;19962;-20
2023/08/18 08:03:32;;;;;;;;;;;;;;;;;;5075878;28;19916;-22
2023/08/18 08:05:58;;;;;;;;;;;;;;;;;;5078145;28;19992;-22
2023/08/18 08:08:24;;;;;;;;;;;;;;;;;;5078736;28;19932;-21
2023/08/18 08:10:50;;;;;;;;;;;;;;;;;;5078092;28;19909;-21
2023/08/18 08:13:16;;;;;;;;;;;;;;;;;;5078005;28;20007;-22
2023/08/18 08:15:45;;;;;;;;;;;;;;;;;;5077951;28;19908;-22
2023/08/18 08:18:13;;;;;;;;;;;;;;;;;;5076724;28;19920;-22
2023/08/18 08:20:39;;;;;;;;;;;;;;;;;;5076644;28;19919;-21
2023/08/18 08:23:06;;;;;;;;;;;;;;;;;;5077616;28;19912;-21
2023/08/18 08:25:32;;;;;;;;;;;;;;;;;;5076566;28;19912;-20
2023/08/18 08:27:58;;;;;;;;;;;;;;;;;;5076456;28;20347;-22
2023/08/18 08:30:24;;;;;;;;;;;;;;;;;;5077755;28;19965;-22
2023/08/18 08:32:50;;;;;;;;;;;;;;;;;;5077633;28;19912;-21
2023/08/18 08:35:16;;;;;;;;;;;;;;;;;;5077697;28;19916;-20
2023/08/18 08:37:42;;;;;;;;;;;;;;;;;;5076468;28;19909;-21
2023/08/18 08:40:10;;;;;;;;;;;;;;;;;;5076450;28;19927;-21
2023/08/18 08:42:36;;;;;;;;;;;;;;;;;;5076106;28;19974;-24
2023/08/18 08:45:02;;;;;;;;;;;;;;;;;;5075623;28;19940;-21
2023/08/18 08:47:28;;;;;;;;;;;;;;;;;;5076655;28;19919;-22
2023/08/18 08:49:54;;;;;;;;;;;;;;;;;;5076742;28;19912;-21
2023/08/18 08:52:20;;;;;;;;;;;;;;;;;;5076429;28;20006;-22
2023/08/18 08:54:46;;;;;;;;;;;;;;;;;;5076434;28;19912;-20
2023/08/18 08:57:13;;;;;;;;;;;;;;;;;;5075329;28;19962;-22
2023/08/18 08:59:39;;;;;;;;;;;;;;;;;;5075228;28;19919;-23
2023/08/18 09:02:05;;;;;;;;;;;;;;;;;;5076268;28;19912;-22
2023/08/18 09:04:31;;;;;;;;;;;;;;;;;;5076180;28;19920;-22
2023/08/18 09:06:57;;;;;;;;;;;;;;;;;;5076179;28;19912;-21
2023/08/18 09:09:23;;;;;;;;;;;;;;;;;;5075039;28;19984;-21
2023/08/18 09:11:49;;;;;;;;;;;;;;;;;;5076246;28;19916;-19
2023/08/18 09:14:15;;;;;;;;;;;;;;;;;;5075257;28;20003;-21
2023/08/18 09:16:42;;;;;;;;;;;;;;;;;;5074914;28;20304;-22
2023/08/18 09:19:08;;;;;;;;;;;;;;;;;;5076304;28;19970;-21
2023/08/18 09:21:34;;;;;;;;;;;;;;;;;;5075953;28;20347;-21
2023/08/18 09:24:00;;;;;;;;;;;;;;;;;;5076012;28;19916;-20
2023/08/18 09:26:25;;;;;;;;;;;;;;;;;;5076258;28;19969;-21
2023/08/18 09:28:51;;;;;;;;;;;;;;;;;;5076185;28;20259;-24
2023/08/18 09:31:17;;;;;;;;;;;;;;;;;;5076443;28;20019;-21
2023/08/18 09:33:43;;;;;;;;;;;;;;;;;;5076248;28;20243;-21
2023/08/18 09:36:10;;;;;;;;;;;;;;;;;;5075282;28;19965;-21
2023/08/18 09:38:36;;;;;;;;;;;;;;;;;;5076253;28;19920;-20
2023/08/18 09:41:03;;;;;;;;;;;;;;;;;;5076114;28;19909;-21
2023/08/18 09:43:29;;;;;;;;;;;;;;;;;;5075848;28;19908;-21
2023/08/18 09:45:54;;;;;;;;;;;;;;;;;;5075890;28;19939;-21
2023/08/18 09:48:20;;;;;;;;;;;;;;;;;;5075757;28;20366;-21
2023/08/18 09:50:47;;;;;;;;;;;;;;;;;;5074542;28;19919;-20
2023/08/18 09:53:13;;;;;;;;;;;;;;;;;;5075576;28;19924;-20
2023/08/18 09:55:39;;;;;;;;;;;;;;;;;;5074521;28;19909;-20
2023/08/18 09:58:05;;;;;;;;;;;;;;;;;;5075570;28;20404;-21
2023/08/18 10:00:31;;;;;;;;;;;;;;;;;;5075622;28;19932;-23
2023/08/18 10:02:57;;;;;;;;;;;;;;;;;;5075675;28;20400;-21
2023/08/18 10:05:23;;;;;;;;;;;;;;;;;;5075876;28;19908;-22
2023/08/18 10:07:49;;;;;;;;;;;;;;;;;;5074347;28;19909;-21
2023/08/18 10:10:15;;;;;;;;;;;;;;;;;;5076007;28;19909;-21
2023/08/18 10:12:41;;;;;;;;;;;;;;;;;;5075552;28;20297;-22
2023/08/18 10:15:07;;;;;;;;;;;;;;;;;;5075597;28;19919;-22
2023/08/18 10:17:33;;;;;;;;;;;;;;;;;;5074479;28;20005;-23
2023/08/18 10:20:00;;;;;;;;;;;;;;;;;;5075290;28;19915;-20
2023/08/18 10:22:26;;;;;;;;;;;;;;;;;;5074302;28;19908;-21
2023/08/18 10:24:52;;;;;;;;;;;;;;;;;;5074160;28;19919;-21
2023/08/18 10:27:18;;;;;;;;;;;;;;;;;;5075202;28;19943;-20
2023/08/18 10:29:44;;;;;;;;;;;;;;;;;;5075204;28;19960;-20
2023/08/18 10:32:10;;;;;;;;;;;;;;;;;;5075003;28;19970;-23
2023/08/18 10:34:38;;;;;;;;;;;;;;;;;;5074953;28;19908;-21
2023/08/18 10:37:04;;;;;;;;;;;;;;;;;;5075208;28;19978;-21
2023/08/18 10:39:40;;;;;;;;;;;;;;;;;;5073954;28;20258;-21
2023/08/18 10:42:07;;;;;;;;;;;;;;;;;;5074936;28;20347;-21
2023/08/18 10:44:33;;;;;;;;;;;;;;;;;;5075163;28;19916;-21
2023/08/18 10:46:59;;;;;;;;;;;;;;;;;;5074990;28;19949;-22
2023/08/18 10:49:25;;;;;;;;;;;;;;;;;;5074908;28;19909;-21
2023/08/18 10:51:51;;;;;;;;;;;;;;;;;;5073773;28;19909;-23
2023/08/18 10:54:17;;;;;;;;;;;;;;;;;;5075004;28;19915;-21
2023/08/18 10:56:43;;;;;;;;;;;;;;;;;;5074902;28;20347;-23
2023/08/18 10:59:09;;;;;;;;;;;;;;;;;;5074945;28;19909;-21
2023/08/18 11:01:35;;;;;;;;;;;;;;;;;;5074809;28;19995;-22
2023/08/18 11:04:01;;;;;;;;;;;;;;;;;;5073231;28;20006;-22
2023/08/18 11:06:27;;;;;;;;;;;;;;;;;;5073449;28;19959;-22
2023/08/18 11:08:53;;;;;;;;;;;;;;;;;;5073403;28;20347;-21
2023/08/18 11:11:19;;;;;;;;;;;;;;;;;;5074398;28;19958;-21
2023/08/18 11:13:45;;;;;;;;;;;;;;;;;;5074271;28;20251;-20
2023/08/18 11:16:11;;;;;;;;;;;;;;;;;;5073309;28;19951;-23
2023/08/18 11:18:37;;;;;;;;;;;;;;;;;;5074328;28;19931;-21
2023/08/18 11:21:03;;;;;;;;;;;;;;;;;;5074385;28;19970;-22
2023/08/18 11:23:29;;;;;;;;;;;;;;;;;;5074383;28;19995;-21
2023/08/18 11:25:55;;;;;;;;;;;;;;;;;;5074466;28;20062;-22
2023/08/18 11:28:21;;;;;;;;;;;;;;;;;;5073610;28;19909;-21
2023/08/18 11:30:47;;;;;;;;;;;;;;;;;;5074811;28;19912;-20
2023/08/18 11:33:13;;;;;;;;;;;;;;;;;;5074484;28;19923;-21
2023/08/18 11:35:39;;;;;;;;;;;;;;;;;;5074434;28;20003;-20
2023/08/18 11:38:05;;;;;;;;;;;;;;;;;;5073879;28;20006;-21
2023/08/18 11:40:31;;;;;;;;;;;;;;;;;;5074384;28;19908;-21
2023/08/18 11:42:57;;;;;;;;;;;;;;;;;;5074464;28;19935;-21
2023/08/18 11:45:23;;;;;;;;;;;;;;;;;;5073278;28;19916;-21
2023/08/18 11:47:49;;;;;;;;;;;;;;;;;;5074392;28;19909;-21
2023/08/18 11:50:21;;;;;;;;;;;;;;;;;;5074870;28;19909;-21
2023/08/18 11:52:47;;;;;;;;;;;;;;;;;;5074389;28;20235;-20
2023/08/18 11:55:14;;;;;;;;;;;;;;;;;;5074569;28;19912;-20
2023/08/18 11:57:44;;;;;;;;;;;;;;;;;;5074509;28;20306;-21
2023/08/18 12:00:13;;;;;;;;;;;;;;;;;;5074140;28;19936;-22
2023/08/18 12:02:38;;;;;;;;;;;;;;;;;;5074530;28;20003;-20
2023/08/18 12:05:05;;;;;;;;;;;;;;;;;;5073743;28;20012;-21
2023/08/18 12:07:31;;;;;;;;;;;;;;;;;;5074022;28;19916;-21
2023/08/18 12:09:59;;;;;;;;;;;;;;;;;;5073064;28;20486;-21
2023/08/18 12:12:25;;;;;;;;;;;;;;;;;;5072612;28;20221;-22
2023/08/18 12:14:51;;;;;;;;;;;;;;;;;;5073743;28;19904;-22
2023/08/18 12:17:17;;;;;;;;;;;;;;;;;;5073733;28;20291;-21
2023/08/18 12:19:43;;;;;;;;;;;;;;;;;;5073749;28;20369;-21
2023/08/18 12:22:09;;;;;;;;;;;;;;;;;;5073518;28;19909;-20
2023/08/18 12:24:36;;;;;;;;;;;;;;;;;;5073767;28;20297;-22
2023/08/18 12:27:02;;;;;;;;;;;;;;;;;;5073539;28;19912;-21
2023/08/18 12:29:28;;;;;;;;;;;;;;;;;;5073671;28;19919;-21
2023/08/18 12:31:54;;;;;;;;;;;;;;;;;;5072673;28;19995;-24
2023/08/18 12:34:20;;;;;;;;;;;;;;;;;;5072853;28;20288;-24
2023/08/18 12:36:46;;;;;;;;;;;;;;;;;;5073934;28;19920;-21
2023/08/18 12:39:12;;;;;;;;;;;;;;;;;;5073927;28;19916;-22
2023/08/18 12:41:38;;;;;;;;;;;;;;;;;;5073670;28;19908;-21
2023/08/18 12:44:08;;;;;;;;;;;;;;;;;;5072319;28;19966;-20
2023/08/18 12:46:34;;;;;;;;;;;;;;;;;;5073743;28;19916;-21
2023/08/18 12:49:01;;;;;;;;;;;;;;;;;;5073571;28;19987;-23
2023/08/18 12:51:27;;;;;;;;;;;;;;;;;;5076601;28;19991;-21
2023/08/18 12:53:53;;;;;;;;;;;;;;;;;;5077117;28;19943;-21
2023/08/18 12:56:19;;;;;;;;;;;;;;;;;;5077308;28;19909;-21
2023/08/18 12:58:45;;;;;;;;;;;;;;;;;;5076841;28;20365;-22
2023/08/18 13:01:12;;;;;;;;;;;;;;;;;;5075661;28;20200;-20
2023/08/18 13:03:38;;;;;;;;;;;;;;;;;;5076675;28;19920;-22
2023/08/18 13:06:04;;;;;;;;;;;;;;;;;;5076870;28;19920;-22
2023/08/18 13:08:30;;;;;;;;;;;;;;;;;;5077004;28;19920;-21
2023/08/18 13:10:56;;;;;;;;;;;;;;;;;;5077097;28;19962;-21
2023/08/18 13:13:22;;;;;;;;;;;;;;;;;;5077215;28;20022;-33
2023/08/18 13:15:48;;;;;;;;;;;;;;;;;;5077115;28;20343;-20
2023/08/18 13:18:14;;;;;;;;;;;;;;;;;;5076711;28;20255;-21
2023/08/18 13:20:40;;;;;;;;;;;;;;;;;;5075771;28;19915;-23
2023/08/18 13:23:07;;;;;;;;;;;;;;;;;;5077050;28;20007;-22
2023/08/18 13:25:34;;;;;;;;;;;;;;;;;;5076990;28;20323;-21
2023/08/18 13:28:00;;;;;;;;;;;;;;;;;;5075742;28;20004;-21
2023/08/18 13:30:26;;;;;;;;;;;;;;;;;;5076774;28;20011;-21
2023/08/18 13:32:52;;;;;;;;;;;;;;;;;;5076405;28;19909;-21
2023/08/18 13:35:18;;;;;;;;;;;;;;;;;;5076626;28;20004;-22
2023/08/18 13:37:44;;;;;;;;;;;;;;;;;;5076845;28;20022;-21
2023/08/18 13:40:10;;;;;;;;;;;;;;;;;;5076803;28;20018;-21
2023/08/18 13:42:36;;;;;;;;;;;;;;;;;;5076391;28;20262;-21
2023/08/18 13:45:02;;;;;;;;;;;;;;;;;;5076378;28;19973;-20
2023/08/18 13:47:28;;;;;;;;;;;;;;;;;;5076442;28;19911;-20
2023/08/18 13:49:54;;;;;;;;;;;;;;;;;;5076327;28;19912;-22
2023/08/18 13:52:20;;;;;;;;;;;;;;;;;;5075208;28;20246;-21
2023/08/18 13:54:46;;;;;;;;;;;;;;;;;;5076499;28;19909;-22
2023/08/18 13:57:12;;;;;;;;;;;;;;;;;;5076109;28;20011;-20
2023/08/18 13:59:38;;;;;;;;;;;;;;;;;;5076306;28;19908;-20
2023/08/18 14:02:03;;;;;;;;;;;;;;;;;;5075478;28;19912;-21
2023/08/18 14:04:29;;;;;;;;;;;;;;;;;;5075448;28;20004;-22
2023/08/18 14:06:56;;;;;;;;;;;;;;;;;;5075542;28;19913;-21
2023/08/18 14:09:23;;;;;;;;;;;;;;;;;;5075855;28;19908;-23
2023/08/18 14:11:49;;;;;;;;;;;;;;;;;;5075446;28;19992;-22
2023/08/18 14:14:15;;;;;;;;;;;;;;;;;;5075698;28;19965;-21
2023/08/18 14:16:41;;;;;;;;;;;;;;;;;;5075421;28;19915;-22
2023/08/18 14:19:07;;;;;;;;;;;;;;;;;;5076084;28;19999;-22
2023/08/18 14:21:33;;;;;;;;;;;;;;;;;;5075730;28;19913;-22
2023/08/18 14:23:59;;;;;;;;;;;;;;;;;;5075607;28;19908;-21
2023/08/18 14:26:25;;;;;;;;;;;;;;;;;;5074336;28;19970;-23
2023/08/18 14:28:51;;;;;;;;;;;;;;;;;;5075331;28;19908;-22
2023/08/18 14:31:17;;;;;;;;;;;;;;;;;;5075162;28;19974;-21
2023/08/18 14:33:44;;;;;;;;;;;;;;;;;;5074708;28;19916;-21
2023/08/18 14:36:10;;;;;;;;;;;;;;;;;;5075522;28;19974;-20
2023/08/18 14:38:36;;;;;;;;;;;;;;;;;;5075259;28;19908;-22
2023/08/18 14:41:04;;;;;;;;;;;;;;;;;;5075097;28;19909;-22
2023/08/18 14:43:30;;;;;;;;;;;;;;;;;;5075287;28;20293;-23
2023/08/18 14:45:56;;;;;;;;;;;;;;;;;;5075250;28;19912;-22
2023/08/18 14:48:22;;;;;;;;;;;;;;;;;;5075192;28;20232;-22
2023/08/18 14:50:48;;;;;;;;;;;;;;;;;;5074976;28;19959;-21
2023/08/18 14:53:14;;;;;;;;;;;;;;;;;;5074802;28;19912;-21
2023/08/18 14:55:40;;;;;;;;;;;;;;;;;;5075084;28;19916;-21
2023/08/18 14:58:06;;;;;;;;;;;;;;;;;;5074739;28;19916;-24
2023/08/18 15:00:34;;;;;;;;;;;;;;;;;;5074507;28;20381;-21
2023/08/18 15:03:00;;;;;;;;;;;;;;;;;;5074341;28;19908;-21
2023/08/18 15:05:26;;;;;;;;;;;;;;;;;;5074844;28;19931;-22
2023/08/18 15:07:52;;;;;;;;;;;;;;;;;;5074459;28;19908;-21
2023/08/18 15:10:18;;;;;;;;;;;;;;;;;;5074374;28;19921;-20
2023/08/18 15:12:44;;;;;;;;;;;;;;;;;;5073374;28;19916;-21
2023/08/18 15:15:10;;;;;;;;;;;;;;;;;;5074266;28;19912;-22
2023/08/18 15:17:36;;;;;;;;;;;;;;;;;;5074107;28;20401;-23
2023/08/18 15:20:05;;;;;;;;;;;;;;;;;;5074235;28;20343;-20
2023/08/18 15:22:31;;;;;;;;;;;;;;;;;;5073907;28;19912;-22
2023/08/18 15:24:57;;;;;;;;;;;;;;;;;;5073875;28;19969;-21
2023/08/18 15:27:23;;;;;;;;;;;;;;;;;;5074356;28;19908;-23
2023/08/18 15:29:49;;;;;;;;;;;;;;;;;;5073918;28;19908;-21
2023/08/18 15:32:15;;;;;;;;;;;;;;;;;;5074061;28;19908;-20
2023/08/18 15:34:41;;;;;;;;;;;;;;;;;;5074039;28;19916;-22
2023/08/18 15:37:07;;;;;;;;;;;;;;;;;;5073141;28;20021;-23
2023/08/18 15:39:33;;;;;;;;;;;;;;;;;;5074703;28;19909;-21
2023/08/18 15:41:59;;;;;;;;;;;;;;;;;;5074056;28;19959;-21
2023/08/18 15:44:25;;;;;;;;;;;;;;;;;;5074530;28;20335;-22
2023/08/18 15:46:51;;;;;;;;;;;;;;;;;;5074062;28;19913;-21
2023/08/18 15:49:17;;;;;;;;;;;;;;;;;;5074014;28;20282;-21
2023/08/18 15:51:43;;;;;;;;;;;;;;;;;;5074082;28;19977;-21
2023/08/18 15:54:09;;;;;;;;;;;;;;;;;;5074334;28;19943;-21
2023/08/18 15:56:35;;;;;;;;;;;;;;;;;;5074457;28;19912;-21
2023/08/18 15:59:01;;;;;;;;;;;;;;;;;;5074298;28;19915;-22
2023/08/18 16:01:27;;;;;;;;;;;;;;;;;;5074489;28;19930;-27
2023/08/18 16:03:53;;;;;;;;;;;;;;;;;;5074388;28;19968;-26
2023/08/18 16:06:19;;;;;;;;;;;;;;;;;;5074265;28;19912;-21
2023/08/18 16:08:45;;;;;;;;;;;;;;;;;;5074185;28;19918;-21
2023/08/18 16:11:11;;;;;;;;;;;;;;;;;;5074310;28;19909;-21
2023/08/18 16:13:37;;;;;;;;;;;;;;;;;;5073245;28;19927;-21
2023/08/18 16:16:03;;;;;;;;;;;;;;;;;;5074526;28;19999;-23
2023/08/18 16:18:29;;;;;;;;;;;;;;;;;;5074572;28;19908;-23
2023/08/18 16:20:56;;;;;;;;;;;;;;;;;;5074047;28;19963;-22
2023/08/18 16:23:22;;;;;;;;;;;;;;;;;;5074342;28;19927;-22
2023/08/18 16:25:48;;;;;;;;;;;;;;;;;;5078073;28;19962;-22
2023/08/18 16:28:14;;;;;;;;;;;;;;;;;;5076879;28;20228;-22
2023/08/18 16:30:40;;;;;;;;;;;;;;;;;;5077860;28;20335;-24
2023/08/18 16:33:06;;;;;;;;;;;;;;;;;;5077653;28;19916;-22
2023/08/18 16:35:32;;;;;;;;;;;;;;;;;;5077622;28;20003;-21
2023/08/18 16:37:58;;;;;;;;;;;;;;;;;;5076542;28;20217;-21